^^
Station Historical Data
Daily Summary for March 10, 2018 Units:  Both    English   Metric
« Previous Day
Next Day »
Daily Weekly Monthly Yearly Custom
  High: Low: Average:
Temperature: TemperatureF °F /  -17.8 °C 59.0 °F /  15 °C 69.4 °F /  20.8 °C
Dew Point: DewpointF °F /  -17.8 °C 15.8 °F /  -9 °C 32 °F /  0 °C
Humidity: Humidity% 8% 27%
Wind Speed: WindSpeedMPHmph /  0km/h - 4.6mph /  7.4km/h
Wind Gust: WindSpeedGustMPHmph /  0km/h - -
Wind- - SSW
Pressure: PressureIn in /  0 hPa 29.68 in /  1005 hPa -
Precipitation: 0.00 in /  0 mm    
Historical Graphs
 
 
Tabular Data for March 10, 2018
Time Temperature Dew Point Pressure Wind Wind Speed Wind Gust Humidity Rainfall Rate (Hourly) solar Conditions
TemperatureF °F /  -17.8 °C DewpointF °F /  -17.8 °C PressureInin /  0hPa Calm     Humidity% HourlyPrecipInin /  0mm SolarRadiationWatts/m^2 W/m2 Conditions
00:03 72.1 °F /  22.3 °C 37.2 °F /  2.9 °C 29.75in /  1007.3hPa SSW 4.9mph /  7.9km/h 8.0mph /  12.9km/h 28% 0.00in /  0mm 0.0 W/m2
00:08 71.8 °F /  22.1 °C 37.8 °F /  3.2 °C 29.75in /  1007.3hPa SSW 6.0mph /  9.7km/h 9.0mph /  14.5km/h 29% 0.00in /  0mm 0.0 W/m2
00:13 71.6 °F /  22 °C 37.6 °F /  3.1 °C 29.76in /  1007.7hPa SSW 8.1mph /  13km/h 8.1mph /  13km/h 29% 0.00in /  0mm 0.0 W/m2
00:23 71.2 °F /  21.8 °C 38.3 °F /  3.5 °C 29.76in /  1007.7hPa SSW 8.1mph /  13km/h 10.0mph /  16.1km/h 30% 0.00in /  0mm 0.0 W/m2
00:28 71.1 °F /  21.7 °C 38.1 °F /  3.4 °C 29.76in /  1007.7hPa SSW 4.9mph /  7.9km/h 8.0mph /  12.9km/h 30% 0.00in /  0mm 0.0 W/m2
00:34 70.7 °F /  21.5 °C 38.7 °F /  3.7 °C 29.76in /  1007.7hPa SSW 6.9mph /  11.1km/h 9.0mph /  14.5km/h 31% 0.00in /  0mm 0.0 W/m2
00:39 70.3 °F /  21.3 °C 38.3 °F /  3.5 °C 29.76in /  1007.7hPa SSW 4.9mph /  7.9km/h 7.0mph /  11.3km/h 31% 0.00in /  0mm 0.0 W/m2
00:44 70.2 °F /  21.2 °C 38.1 °F /  3.4 °C 29.76in /  1007.7hPa SSW 4.0mph /  6.4km/h 6.0mph /  9.7km/h 31% 0.00in /  0mm 0.0 W/m2
00:54 69.4 °F /  20.8 °C 38.3 °F /  3.5 °C 29.75in /  1007.3hPa SSW 4.0mph /  6.4km/h 6.0mph /  9.7km/h 32% 0.00in /  0mm 0.0 W/m2
00:59 69.1 °F /  20.6 °C 37.9 °F /  3.3 °C 29.75in /  1007.3hPa SSW 4.0mph /  6.4km/h 5.0mph /  8km/h 32% 0.00in /  0mm 0.0 W/m2
01:04 68.7 °F /  20.4 °C 37.6 °F /  3.1 °C 29.75in /  1007.3hPa SSW 4.0mph /  6.4km/h 6.0mph /  9.7km/h 32% 0.00in /  0mm 0.0 W/m2
01:14 68.2 °F /  20.1 °C 37.9 °F /  3.3 °C 29.75in /  1007.3hPa SSW 4.0mph /  6.4km/h 5.0mph /  8km/h 33% 0.00in /  0mm 0.0 W/m2
01:19 67.8 °F /  19.9 °C 37.6 °F /  3.1 °C 29.75in /  1007.3hPa SSW 4.9mph /  7.9km/h 5.0mph /  8km/h 33% 0.00in /  0mm 0.0 W/m2
01:24 67.6 °F /  19.8 °C 37.6 °F /  3.1 °C 29.75in /  1007.3hPa SSW 4.0mph /  6.4km/h 6.0mph /  9.7km/h 33% 0.00in /  0mm 0.0 W/m2
01:29 67.8 °F /  19.9 °C 37.6 °F /  3.1 °C 29.75in /  1007.3hPa SSW 4.9mph /  7.9km/h 6.0mph /  9.7km/h 33% 0.00in /  0mm 0.0 W/m2
01:34 67.8 °F /  19.9 °C 37.6 °F /  3.1 °C 29.75in /  1007.3hPa SSW 4.0mph /  6.4km/h 7.0mph /  11.3km/h 33% 0.00in /  0mm 0.0 W/m2
01:40 67.6 °F /  19.8 °C 37.6 °F /  3.1 °C 29.75in /  1007.3hPa SSW 4.0mph /  6.4km/h 6.0mph /  9.7km/h 33% 0.00in /  0mm 0.0 W/m2
01:45 67.5 °F /  19.7 °C 37.4 °F /  3 °C 29.75in /  1007.3hPa SSW 4.9mph /  7.9km/h 5.0mph /  8km/h 33% 0.00in /  0mm 0.0 W/m2
01:50 67.3 °F /  19.6 °C 37.2 °F /  2.9 °C 29.75in /  1007.3hPa SSW 4.9mph /  7.9km/h 6.0mph /  9.7km/h 33% 0.00in /  0mm 0.0 W/m2
01:55 66.9 °F /  19.4 °C 37.6 °F /  3.1 °C 29.75in /  1007.3hPa SSW 4.9mph /  7.9km/h 6.0mph /  9.7km/h 34% 0.00in /  0mm 0.0 W/m2
02:00 66.9 °F /  19.4 °C 37.6 °F /  3.1 °C 29.75in /  1007.3hPa SSW 4.9mph /  7.9km/h 5.0mph /  8km/h 34% 0.00in /  0mm 0.0 W/m2
02:05 66.9 °F /  19.4 °C 37.6 °F /  3.1 °C 29.75in /  1007.3hPa SSW 4.0mph /  6.4km/h 5.0mph /  8km/h 34% 0.00in /  0mm 0.0 W/m2
02:10 66.7 °F /  19.3 °C 37.4 °F /  3 °C 29.75in /  1007.3hPa SSW 2.0mph /  3.2km/h 4.0mph /  6.4km/h 34% 0.00in /  0mm 0.0 W/m2
02:16 66.6 °F /  19.2 °C 37.4 °F /  3 °C 29.75in /  1007.3hPa Calm     34% 0.00in /  0mm 0.0 W/m2
02:21 66.4 °F /  19.1 °C 37.2 °F /  2.9 °C 29.75in /  1007.3hPa Calm     34% 0.00in /  0mm 0.0 W/m2
02:26 66.0 °F /  18.9 °C 37.6 °F /  3.1 °C 29.75in /  1007.3hPa Calm     35% 0.00in /  0mm 0.0 W/m2
02:32 65.8 °F /  18.8 °C 37.4 °F /  3 °C 29.75in /  1007.3hPa Calm     35% 0.00in /  0mm 0.0 W/m2
02:37 65.5 °F /  18.6 °C 37.0 °F /  2.8 °C 29.75in /  1007.3hPa Calm     35% 0.00in /  0mm 0.0 W/m2
02:43 65.5 °F /  18.6 °C 37.0 °F /  2.8 °C 29.75in /  1007.3hPa Calm     35% 0.00in /  0mm 0.0 W/m2
02:48 65.3 °F /  18.5 °C 36.9 °F /  2.7 °C 29.74in /  1007hPa Calm     35% 0.00in /  0mm 0.0 W/m2
02:53 65.3 °F /  18.5 °C 36.9 °F /  2.7 °C 29.74in /  1007hPa Calm     35% 0.00in /  0mm 0.0 W/m2
03:03 64.6 °F /  18.1 °C 37.0 °F /  2.8 °C 29.74in /  1007hPa Calm     36% 0.00in /  0mm 0.0 W/m2
03:09 63.9 °F /  17.7 °C 36.3 °F /  2.4 °C 29.74in /  1007hPa Calm     36% 0.00in /  0mm 0.0 W/m2
03:14 63.1 °F /  17.3 °C 36.5 °F /  2.5 °C 29.74in /  1007hPa Calm     37% 0.00in /  0mm 0.0 W/m2
03:19 62.8 °F /  17.1 °C 36.9 °F /  2.7 °C 29.74in /  1007hPa Calm     38% 0.00in /  0mm 0.0 W/m2
03:25 62.4 °F /  16.9 °C 36.5 °F /  2.5 °C 29.74in /  1007hPa Calm     38% 0.00in /  0mm 0.0 W/m2
03:35 62.2 °F /  16.8 °C 36.3 °F /  2.4 °C 29.74in /  1007hPa Calm     38% 0.00in /  0mm 0.0 W/m2
03:40 62.1 °F /  16.7 °C 36.1 °F /  2.3 °C 29.74in /  1007hPa Calm     38% 0.00in /  0mm 0.0 W/m2
03:45 62.1 °F /  16.7 °C 36.1 °F /  2.3 °C 29.74in /  1007hPa Calm     38% 0.00in /  0mm 0.0 W/m2
03:50 62.1 °F /  16.7 °C 36.1 °F /  2.3 °C 29.74in /  1007hPa Calm     38% 0.00in /  0mm 0.0 W/m2
03:56 62.4 °F /  16.9 °C 35.8 °F /  2.1 °C 29.74in /  1007hPa Calm     37% 0.00in /  0mm 0.0 W/m2
04:01 62.8 °F /  17.1 °C 36.1 °F /  2.3 °C 29.74in /  1007hPa Calm     37% 0.00in /  0mm 0.0 W/m2
04:11 63.0 °F /  17.2 °C 35.6 °F /  2 °C 29.74in /  1007hPa Calm     36% 0.00in /  0mm 0.0 W/m2
04:16 63.0 °F /  17.2 °C 36.3 °F /  2.4 °C 29.74in /  1007hPa Calm     37% 0.00in /  0mm 0.0 W/m2
04:21 62.6 °F /  17 °C 36.0 °F /  2.2 °C 29.74in /  1007hPa Calm     37% 0.00in /  0mm 0.0 W/m2
04:27 62.4 °F /  16.9 °C 35.1 °F /  1.7 °C 29.73in /  1006.7hPa Calm     36% 0.00in /  0mm 0.0 W/m2
04:37 62.1 °F /  16.7 °C 34.9 °F /  1.6 °C 29.73in /  1006.7hPa Calm     36% 0.00in /  0mm 0.0 W/m2
04:42 61.9 °F /  16.6 °C 35.2 °F /  1.8 °C 29.73in /  1006.7hPa Calm     37% 0.00in /  0mm 0.0 W/m2
04:47 61.5 °F /  16.4 °C 35.6 °F /  2 °C 29.73in /  1006.7hPa Calm     38% 0.00in /  0mm 0.0 W/m2
04:54 61.3 °F /  16.3 °C 35.6 °F /  2 °C 29.73in /  1006.7hPa Calm     38% 0.00in /  0mm 0.0 W/m2
05:04 60.8 °F /  16 °C 35.1 °F /  1.7 °C 29.73in /  1006.7hPa Calm     38% 0.00in /  0mm 0.0 W/m2
05:09 60.4 °F /  15.8 °C 35.4 °F /  1.9 °C 29.73in /  1006.7hPa Calm     39% 0.00in /  0mm 0.0 W/m2
05:14 59.9 °F /  15.5 °C 34.9 °F /  1.6 °C 29.74in /  1007hPa Calm     39% 0.00in /  0mm 0.0 W/m2
05:19 59.7 °F /  15.4 °C 34.7 °F /  1.5 °C 29.74in /  1007hPa Calm     39% 0.00in /  0mm 0.0 W/m2
05:24 59.5 °F /  15.3 °C 34.5 °F /  1.4 °C 29.74in /  1007hPa Calm     39% 0.00in /  0mm 0.0 W/m2
05:30 59.4 °F /  15.2 °C 34.3 °F /  1.3 °C 29.74in /  1007hPa Calm     39% 0.00in /  0mm 0.0 W/m2
05:35 59.4 °F /  15.2 °C 33.8 °F /  1 °C 29.74in /  1007hPa Calm     38% 0.00in /  0mm 0.0 W/m2
05:40 59.5 °F /  15.3 °C 34.0 °F /  1.1 °C 29.74in /  1007hPa Calm     38% 0.00in /  0mm 0.0 W/m2
05:45 59.5 °F /  15.3 °C 34.0 °F /  1.1 °C 29.74in /  1007hPa Calm     38% 0.00in /  0mm 0.0 W/m2
05:51 59.2 °F /  15.1 °C 34.2 °F /  1.2 °C 29.75in /  1007.3hPa Calm     39% 0.00in /  0mm 0.0 W/m2
05:56 59.0 °F /  15 °C 34.2 °F /  1.2 °C 29.75in /  1007.3hPa Calm     39% 0.00in /  0mm 0.0 W/m2
06:01 59.0 °F /  15 °C 34.2 °F /  1.2 °C 29.75in /  1007.3hPa Calm     39% 0.00in /  0mm 0.0 W/m2
06:07 59.0 °F /  15 °C 34.2 °F /  1.2 °C 29.75in /  1007.3hPa Calm     39% 0.00in /  0mm 0.0 W/m2
06:12 59.4 °F /  15.2 °C 35.6 °F /  2 °C 29.75in /  1007.3hPa SSW 2.9mph /  4.7km/h 5.0mph /  8km/h 41% 0.00in /  0mm 0.0 W/m2
06:22 60.8 °F /  16 °C 36.3 °F /  2.4 °C 29.76in /  1007.7hPa SSW 4.9mph /  7.9km/h 6.0mph /  9.7km/h 40% 0.00in /  0mm 0.0 W/m2
06:38 60.6 °F /  15.9 °C 36.1 °F /  2.3 °C 29.76in /  1007.7hPa SSW 0.9mph /  1.4km/h 3.0mph /  4.8km/h 40% 0.00in /  0mm 0.0 W/m2
06:47 60.1 °F /  15.6 °C 35.6 °F /  2 °C 29.77in /  1008hPa Calm     40% 0.00in /  0mm 5.0 W/m2
06:52 59.9 °F /  15.5 °C 36.1 °F /  2.3 °C 29.77in /  1008hPa Calm     41% 0.00in /  0mm 7.0 W/m2
06:58 59.5 °F /  15.3 °C 35.8 °F /  2.1 °C 29.77in /  1008hPa Calm     41% 0.00in /  0mm 11.0 W/m2
07:09 59.5 °F /  15.3 °C 37.0 °F /  2.8 °C 29.77in /  1008hPa Calm     43% 0.00in /  0mm 21.0 W/m2
07:17 59.9 °F /  15.5 °C 36.7 °F /  2.6 °C 29.77in /  1008hPa Calm     42% 0.00in /  0mm 32.0 W/m2
07:29 60.4 °F /  15.8 °C 37.2 °F /  2.9 °C 29.77in /  1008hPa Calm     42% 0.00in /  0mm 62.0 W/m2
07:44 61.7 °F /  16.5 °C 36.5 °F /  2.5 °C 29.77in /  1008hPa Calm     39% 0.00in /  0mm 125.0 W/m2
08:08 64.6 °F /  18.1 °C 36.3 °F /  2.4 °C 29.77in /  1008hPa Calm     35% 0.00in /  0mm 241.0 W/m2
08:50 69.1 °F /  20.6 °C 30.7 °F /  -0.7 °C 29.77in /  1008hPa SSW 8.9mph /  14.3km/h 10.0mph /  16.1km/h 24% 0.00in /  0mm 388.0 W/m2
09:05 70.0 °F /  21.1 °C 32.5 °F /  0.3 °C 29.77in /  1008hPa SSW 8.1mph /  13km/h 10.0mph /  16.1km/h 25% 0.00in /  0mm 443.0 W/m2
09:15 70.5 °F /  21.4 °C 33.1 °F /  0.6 °C 29.77in /  1008hPa SSW 8.9mph /  14.3km/h 10.0mph /  16.1km/h 25% 0.00in /  0mm 476.0 W/m2
09:30 71.6 °F /  22 °C 30.7 °F /  -0.7 °C 29.78in /  1008.4hPa SSW 6.9mph /  11.1km/h 13.0mph /  20.9km/h 22% 0.00in /  0mm 531.0 W/m2
10:10 73.8 °F /  23.2 °C 30.2 °F /  -1 °C 29.77in /  1008hPa SSW 6.0mph /  9.7km/h 11.0mph /  17.7km/h 20% 0.00in /  0mm 654.0 W/m2
10:21 74.5 °F /  23.6 °C 29.5 °F /  -1.4 °C 29.77in /  1008hPa SSW 4.9mph /  7.9km/h 9.0mph /  14.5km/h 19% 0.00in /  0mm 680.0 W/m2
10:36 76.1 °F /  24.5 °C 28.0 °F /  -2.2 °C 29.77in /  1008hPa SSW 6.9mph /  11.1km/h 10.0mph /  16.1km/h 17% 0.00in /  0mm 714.0 W/m2
10:49 76.8 °F /  24.9 °C 25.7 °F /  -3.5 °C 29.77in /  1008hPa SSW 6.9mph /  11.1km/h 7.0mph /  11.3km/h 15% 0.00in /  0mm 758.0 W/m2
11:00 77.5 °F /  25.3 °C 26.2 °F /  -3.2 °C 29.77in /  1008hPa SSW 6.0mph /  9.7km/h 8.0mph /  12.9km/h 15% 0.00in /  0mm 780.0 W/m2
11:46 80.1 °F /  26.7 °C 24.8 °F /  -4 °C 29.74in /  1007hPa SSW 6.0mph /  9.7km/h 10.0mph /  16.1km/h 13% 0.00in /  0mm 925.0 W/m2
11:54 80.8 °F /  27.1 °C 25.3 °F /  -3.7 °C 29.74in /  1007hPa SSW 8.9mph /  14.3km/h 11.0mph /  17.7km/h 13% 0.00in /  0mm 970.0 W/m2
12:04 81.1 °F /  27.3 °C 25.7 °F /  -3.5 °C 29.74in /  1007hPa SW 2.0mph /  3.2km/h 11.0mph /  17.7km/h 13% 0.00in /  0mm 668.0 W/m2
12:14 81.7 °F /  27.6 °C 26.1 °F /  -3.3 °C 29.74in /  1007hPa SW 4.9mph /  7.9km/h 9.0mph /  14.5km/h 13% 0.00in /  0mm 956.0 W/m2
12:24 82.2 °F /  27.9 °C 26.4 °F /  -3.1 °C 29.73in /  1006.7hPa SW 8.1mph /  13km/h 10.0mph /  16.1km/h 13% 0.00in /  0mm 972.0 W/m2
12:35 82.9 °F /  28.3 °C 25.2 °F /  -3.8 °C 29.73in /  1006.7hPa SW 8.9mph /  14.3km/h 10.0mph /  16.1km/h 12% 0.00in /  0mm 974.0 W/m2
12:46 82.9 °F /  28.3 °C 25.2 °F /  -3.8 °C 29.73in /  1006.7hPa SW 6.9mph /  11.1km/h 11.0mph /  17.7km/h 12% 0.00in /  0mm 1025.0 W/m2
12:57 82.8 °F /  28.2 °C 25.0 °F /  -3.9 °C 29.73in /  1006.7hPa SW 6.0mph /  9.7km/h 11.0mph /  17.7km/h 12% 0.00in /  0mm 1067.0 W/m2
13:27 82.0 °F /  27.8 °C 24.4 °F /  -4.2 °C 29.72in /  1006.3hPa SW 6.0mph /  9.7km/h 9.0mph /  14.5km/h 12% 0.00in /  0mm 376.0 W/m2
13:42 82.8 °F /  28.2 °C 22.8 °F /  -5.1 °C 29.72in /  1006.3hPa SSW 4.0mph /  6.4km/h 13.0mph /  20.9km/h 11% 0.00in /  0mm 821.0 W/m2
14:12 82.6 °F /  28.1 °C 22.8 °F /  -5.1 °C 29.71in /  1006hPa SSW 4.9mph /  7.9km/h 10.0mph /  16.1km/h 11% 0.00in /  0mm 548.0 W/m2
14:23 83.3 °F /  28.5 °C 21.0 °F /  -6.1 °C 29.71in /  1006hPa SW 8.9mph /  14.3km/h 11.0mph /  17.7km/h 10% 0.00in /  0mm 923.0 W/m2
14:33 83.8 °F /  28.8 °C 21.4 °F /  -5.9 °C 29.70in /  1005.6hPa SSW 4.9mph /  7.9km/h 11.0mph /  17.7km/h 10% 0.00in /  0mm 810.0 W/m2
14:58 83.7 °F /  28.7 °C 21.4 °F /  -5.9 °C 29.69in /  1005.3hPa SSW 8.9mph /  14.3km/h 9.0mph /  14.5km/h 10% 0.00in /  0mm 705.0 W/m2
15:08 84.2 °F /  29 °C 21.7 °F /  -5.7 °C 29.68in /  1005hPa Calm   9.0mph /  14.5km/h 10% 0.00in /  0mm 809.0 W/m2
15:19 84.7 °F /  29.3 °C 19.6 °F /  -6.9 °C 29.68in /  1005hPa SW 8.1mph /  13km/h 14.0mph /  22.5km/h 9% 0.00in /  0mm 396.0 W/m2
15:33 84.0 °F /  28.9 °C 19.0 °F /  -7.2 °C 29.68in /  1005hPa SW 8.9mph /  14.3km/h 10.0mph /  16.1km/h 9% 0.00in /  0mm 359.0 W/m2
15:43 83.8 °F /  28.8 °C 19.0 °F /  -7.2 °C 29.68in /  1005hPa SW 6.0mph /  9.7km/h 7.0mph /  11.3km/h 9% 0.00in /  0mm 336.0 W/m2
15:53 84.0 °F /  28.9 °C 16.3 °F /  -8.7 °C 29.68in /  1005hPa SSW 6.0mph /  9.7km/h 8.0mph /  12.9km/h 8% 0.00in /  0mm 306.0 W/m2
16:13 84.2 °F /  29 °C 16.5 °F /  -8.6 °C 29.68in /  1005hPa SSW 10.1mph /  16.3km/h 10.1mph /  16.3km/h 8% 0.00in /  0mm 334.0 W/m2
16:23 83.7 °F /  28.7 °C 16.2 °F /  -8.8 °C 29.68in /  1005hPa SSW 8.9mph /  14.3km/h 12.0mph /  19.3km/h 8% 0.00in /  0mm 246.0 W/m2
16:34 83.5 °F /  28.6 °C 16.0 °F /  -8.9 °C 29.68in /  1005hPa SSW 4.9mph /  7.9km/h 11.0mph /  17.7km/h 8% 0.00in /  0mm 246.0 W/m2
16:49 83.1 °F /  28.4 °C 15.8 °F /  -9 °C 29.68in /  1005hPa SSW 8.9mph /  14.3km/h 12.0mph /  19.3km/h 8% 0.00in /  0mm 174.0 W/m2
17:59 82.9 °F /  28.3 °C 18.3 °F /  -7.6 °C 29.68in /  1005hPa SSW 10.1mph /  16.3km/h 19.0mph /  30.6km/h 9% 0.00in /  0mm 320.0 W/m2
18:23 82.0 °F /  27.8 °C 20.1 °F /  -6.6 °C 29.69in /  1005.3hPa SSW 12.1mph /  19.5km/h 15.0mph /  24.1km/h 10% 0.00in /  0mm 128.0 W/m2
18:30 81.3 °F /  27.4 °C 19.6 °F /  -6.9 °C 29.69in /  1005.3hPa SSW 8.9mph /  14.3km/h 14.0mph /  22.5km/h 10% 0.00in /  0mm 81.0 W/m2
18:35 81.3 °F /  27.4 °C 19.6 °F /  -6.9 °C 29.69in /  1005.3hPa SSW 8.9mph /  14.3km/h 14.0mph /  22.5km/h 10% 0.00in /  0mm 63.0 W/m2
18:46 80.8 °F /  27.1 °C 19.2 °F /  -7.1 °C 29.69in /  1005.3hPa SSW 13.0mph /  20.9km/h 14.0mph /  22.5km/h 10% 0.00in /  0mm 30.0 W/m2
18:52 80.4 °F /  26.9 °C 18.9 °F /  -7.3 °C 29.69in /  1005.3hPa SSW 10.1mph /  16.3km/h 15.0mph /  24.1km/h 10% 0.00in /  0mm 19.0 W/m2
19:15 79.2 °F /  26.2 °C 20.1 °F /  -6.6 °C 29.70in /  1005.6hPa SSW 10.1mph /  16.3km/h 15.0mph /  24.1km/h 11% 0.00in /  0mm 5.0 W/m2
19:30 78.1 °F /  25.6 °C 21.4 °F /  -5.9 °C 29.70in /  1005.6hPa SSW 8.1mph /  13km/h 14.0mph /  22.5km/h 12% 0.00in /  0mm 0.0 W/m2
19:59 76.5 °F /  24.7 °C 29.8 °F /  -1.2 °C 29.72in /  1006.3hPa SSW 11.0mph /  17.7km/h 17.0mph /  27.4km/h 18% 0.00in /  0mm 0.0 W/m2
20:26 75.0 °F /  23.9 °C 30.0 °F /  -1.1 °C 29.73in /  1006.7hPa SSW 14.1mph /  22.7km/h 14.1mph /  22.7km/h 19% 0.00in /  0mm 0.0 W/m2
20:38 74.7 °F /  23.7 °C 29.7 °F /  -1.3 °C 29.73in /  1006.7hPa SSW 10.1mph /  16.3km/h 11.0mph /  17.7km/h 19% 0.00in /  0mm 0.0 W/m2
20:46 74.3 °F /  23.5 °C 29.3 °F /  -1.5 °C 29.74in /  1007hPa SSW 8.9mph /  14.3km/h 13.0mph /  20.9km/h 19% 0.00in /  0mm 0.0 W/m2
20:51 74.1 °F /  23.4 °C 29.3 °F /  -1.5 °C 29.74in /  1007hPa SSW 6.9mph /  11.1km/h 12.0mph /  19.3km/h 19% 0.00in /  0mm 0.0 W/m2
20:56 73.8 °F /  23.2 °C 30.2 °F /  -1 °C 29.75in /  1007.3hPa SSW 14.1mph /  22.7km/h 14.1mph /  22.7km/h 20% 0.00in /  0mm 0.0 W/m2
21:01 73.6 °F /  23.1 °C 32.4 °F /  0.2 °C 29.75in /  1007.3hPa SSW 6.9mph /  11.1km/h 12.0mph /  19.3km/h 22% 0.00in /  0mm 0.0 W/m2
21:06 73.0 °F /  22.8 °C 33.1 °F /  0.6 °C 29.75in /  1007.3hPa SSW 6.9mph /  11.1km/h 9.0mph /  14.5km/h 23% 0.00in /  0mm 0.0 W/m2
21:11 72.7 °F /  22.6 °C 33.8 °F /  1 °C 29.76in /  1007.7hPa SSW 8.1mph /  13km/h 11.0mph /  17.7km/h 24% 0.00in /  0mm 0.0 W/m2
21:21 72.1 °F /  22.3 °C 35.4 °F /  1.9 °C 29.76in /  1007.7hPa SSW 11.0mph /  17.7km/h 13.0mph /  20.9km/h 26% 0.00in /  0mm 0.0 W/m2
21:27 72.0 °F /  22.2 °C 36.1 °F /  2.3 °C 29.76in /  1007.7hPa SSW 11.0mph /  17.7km/h 11.0mph /  17.7km/h 27% 0.00in /  0mm 0.0 W/m2
21:32 71.6 °F /  22 °C 35.8 °F /  2.1 °C 29.77in /  1008hPa SSW 8.9mph /  14.3km/h 12.0mph /  19.3km/h 27% 0.00in /  0mm 0.0 W/m2
21:37 71.2 °F /  21.8 °C 36.5 °F /  2.5 °C 29.77in /  1008hPa SSW 6.9mph /  11.1km/h 14.0mph /  22.5km/h 28% 0.00in /  0mm 0.0 W/m2
21:43 70.9 °F /  21.6 °C 36.1 °F /  2.3 °C 29.77in /  1008hPa SSW 6.0mph /  9.7km/h 9.0mph /  14.5km/h 28% 0.00in /  0mm 0.0 W/m2
21:49 70.7 °F /  21.5 °C 36.0 °F /  2.2 °C 29.77in /  1008hPa SSW 8.9mph /  14.3km/h 10.0mph /  16.1km/h 28% 0.00in /  0mm 0.0 W/m2
22:01 70.2 °F /  21.2 °C 36.5 °F /  2.5 °C 29.78in /  1008.4hPa SSW 11.0mph /  17.7km/h 11.0mph /  17.7km/h 29% 0.00in /  0mm 0.0 W/m2
22:21 69.4 °F /  20.8 °C 35.8 °F /  2.1 °C 29.79in /  1008.7hPa SSW 4.9mph /  7.9km/h 8.0mph /  12.9km/h 29% 0.00in /  0mm 0.0 W/m2
22:28 69.1 °F /  20.6 °C 35.4 °F /  1.9 °C 29.79in /  1008.7hPa SSW 6.9mph /  11.1km/h 9.0mph /  14.5km/h 29% 0.00in /  0mm 0.0 W/m2
22:37 68.9 °F /  20.5 °C 35.4 °F /  1.9 °C 29.79in /  1008.7hPa SSW 6.9mph /  11.1km/h 10.0mph /  16.1km/h 29% 0.00in /  0mm 0.0 W/m2
22:42 68.7 °F /  20.4 °C 35.2 °F /  1.8 °C 29.80in /  1009hPa SSW 8.1mph /  13km/h 10.0mph /  16.1km/h 29% 0.00in /  0mm 0.0 W/m2
22:47 68.5 °F /  20.3 °C 35.1 °F /  1.7 °C 29.80in /  1009hPa SSW 8.1mph /  13km/h 10.0mph /  16.1km/h 29% 0.00in /  0mm 0.0 W/m2
22:57 68.2 °F /  20.1 °C 34.7 °F /  1.5 °C 29.80in /  1009hPa SSW 6.0mph /  9.7km/h 9.0mph /  14.5km/h 29% 0.00in /  0mm 0.0 W/m2
23:02 67.8 °F /  19.9 °C 34.3 °F /  1.3 °C 29.80in /  1009hPa SSW 6.9mph /  11.1km/h 8.0mph /  12.9km/h 29% 0.00in /  0mm 0.0 W/m2
23:07 67.6 °F /  19.8 °C 34.2 °F /  1.2 °C 29.80in /  1009hPa SSW 4.9mph /  7.9km/h 8.0mph /  12.9km/h 29% 0.00in /  0mm 0.0 W/m2
23:12 67.6 °F /  19.8 °C 34.2 °F /  1.2 °C 29.80in /  1009hPa SSW 6.9mph /  11.1km/h 11.0mph /  17.7km/h 29% 0.00in /  0mm 0.0 W/m2
23:18 67.6 °F /  19.8 °C 34.2 °F /  1.2 °C 29.80in /  1009hPa SSW 6.0mph /  9.7km/h 9.0mph /  14.5km/h 29% 0.00in /  0mm 0.0 W/m2
23:27 67.3 °F /  19.6 °C 34.7 °F /  1.5 °C 29.80in /  1009hPa SSW 6.9mph /  11.1km/h 9.0mph /  14.5km/h 30% 0.00in /  0mm 0.0 W/m2
23:33 67.1 °F /  19.5 °C 35.4 °F /  1.9 °C 29.80in /  1009hPa SSW 6.9mph /  11.1km/h 10.0mph /  16.1km/h 31% 0.00in /  0mm 0.0 W/m2
23:38 66.9 °F /  19.4 °C 35.2 °F /  1.8 °C 29.80in /  1009hPa SSW 6.9mph /  11.1km/h 13.0mph /  20.9km/h 31% 0.00in /  0mm 0.0 W/m2
23:43 66.9 °F /  19.4 °C 34.5 °F /  1.4 °C 29.81in /  1009.4hPa SSW 6.0mph /  9.7km/h 10.0mph /  16.1km/h 30% 0.00in /  0mm 0.0 W/m2
23:53 66.6 °F /  19.2 °C 35.1 °F /  1.7 °C 29.81in /  1009.4hPa SSW 8.9mph /  14.3km/h 11.0mph /  17.7km/h 31% 0.00in /  0mm 0.0 W/m2
23:58 66.4 °F /  19.1 °C 34.0 °F /  1.1 °C 29.81in /  1009.4hPa SSW 6.0mph /  9.7km/h 11.0mph /  17.7km/h 30% 0.00in /  0mm 0.0 W/m2
Canyon Roadhouse, Fishriver Canyon, Namibia
Compliments of Weather Underground - 2.5 mb